Time;durP1;ratioP1;P1;durP2;ratioP2;P2;SDS_P1;SDS_P2;PMS_P1;PMS_P2;Temp;Humidity;BMP_temperature;BMP_pressure;BME280_temperature;BME280_humidity;BME280_pressure;Samples;Min_cycle;Max_cycle;Signal;HPM_P1;HPM_P2
2022/01/05 00:01:37;;;;;;;16.37;7.47;;;;;;;6.12;100.00;98444.19;3565657;81;98905;-86
2022/01/05 00:06:38;;;;;;;18.12;7.42;;;;;;;6.09;100.00;98457.86;3567972;81;99117;-86
2022/01/05 00:11:40;;;;;;;17.87;7.83;;;;;;;6.00;100.00;98461.61;3568314;81;99321;-86
2022/01/05 00:16:41;;;;;;;14.98;6.83;;;;;;;5.93;100.00;98473.88;3565426;81;98779;-86
2022/01/05 00:21:42;;;;;;;13.93;7.07;;;;;;;5.81;100.00;98475.09;3539426;81;98723;-86
2022/01/05 00:26:43;;;;;;;16.20;6.10;;;;;;;5.75;100.00;98482.09;3575658;81;33670;-86
2022/01/05 00:31:44;;;;;;;15.37;6.53;;;;;;;5.70;100.00;98474.87;3562319;81;98871;-86
2022/01/05 00:36:45;;;;;;;13.20;5.73;;;;;;;5.64;100.00;98470.98;3569436;81;99285;-86
2022/01/05 00:41:45;;;;;;;15.37;6.63;;;;;;;5.59;100.00;98465.91;3557667;81;98980;-86
2022/01/05 00:46:47;;;;;;;11.53;5.67;;;;;;;5.55;100.00;98467.86;3574604;81;99030;-85
2022/01/05 00:51:48;;;;;;;15.90;7.20;;;;;;;5.52;100.00;98468.66;3554073;81;98803;-85
2022/01/05 00:56:49;;;;;;;15.20;5.63;;;;;;;5.49;100.00;98488.52;3548212;83;32519;-85
2022/01/05 01:01:50;;;;;;;12.70;6.28;;;;;;;5.49;100.00;98507.04;3547996;83;98985;-85
2022/01/05 01:06:51;;;;;;;13.80;6.23;;;;;;;5.49;100.00;98517.16;3547326;83;99236;-85
2022/01/05 01:11:52;;;;;;;11.80;5.00;;;;;;;5.47;100.00;98520.88;3542408;83;98798;-85
2022/01/05 01:16:53;;;;;;;11.60;4.53;;;;;;;5.44;100.00;98529.81;3548287;82;98797;-85
2022/01/05 01:21:55;;;;;;;10.50;4.97;;;;;;;5.44;100.00;98534.70;3539460;82;98731;-84
2022/01/05 01:26:56;;;;;;;10.77;4.57;;;;;;;5.42;100.00;98531.59;3543701;82;26123;-84
2022/01/05 01:31:57;;;;;;;9.40;4.27;;;;;;;5.41;100.00;98547.73;3541620;82;98636;-85
2022/01/05 01:36:58;;;;;;;9.83;4.03;;;;;;;5.38;100.00;98563.53;3516899;82;98441;-85
2022/01/05 01:41:59;;;;;;;9.83;3.87;;;;;;;5.31;100.00;98566.25;3538621;83;98707;-86
2022/01/05 01:47:00;;;;;;;11.40;2.87;;;;;;;5.27;100.00;98549.67;3549380;83;98561;-85
2022/01/05 01:52:01;;;;;;;5.10;1.90;;;;;;;5.18;100.00;98553.37;3547419;82;98619;-86
2022/01/05 01:57:03;;;;;;;7.47;1.97;;;;;;;5.11;100.00;98557.42;3565772;81;26415;-86
2022/01/05 02:02:05;;;;;;;4.57;1.70;;;;;;;5.03;100.00;98556.62;3565215;82;98459;-86
2022/01/05 02:07:06;;;;;;;4.03;1.62;;;;;;;4.97;100.00;98560.13;3566092;81;98463;-86
2022/01/05 02:12:08;;;;;;;2.77;1.23;;;;;;;4.95;100.00;98555.05;3496022;82;98646;-86
2022/01/05 02:17:20;;;;;;;4.03;1.50;;;;;;;4.90;100.00;98570.41;3498994;83;98433;-85
2022/01/05 02:22:20;;;;;;;5.23;1.90;;;;;;;4.88;100.00;98563.78;3479745;83;98574;-85
2022/01/05 02:27:21;;;;;;;4.93;1.80;;;;;;;4.85;100.00;98558.52;3504520;83;26150;-86
2022/01/05 02:32:21;;;;;;;4.17;1.40;;;;;;;4.86;100.00;98559.31;3495264;83;98361;-86
2022/01/05 02:37:22;;;;;;;5.22;1.77;;;;;;;4.85;100.00;98566.69;3505769;83;98371;-85
2022/01/05 02:42:30;;;;;;;5.53;1.90;;;;;;;4.86;100.00;98560.07;3500282;83;98499;-85
2022/01/05 02:47:31;;;;;;;5.80;1.57;;;;;;;4.84;100.00;98562.41;3503558;83;98469;-85
2022/01/05 02:52:33;;;;;;;4.17;1.60;;;;;;;4.82;100.00;98548.97;3501044;83;98602;-85
2022/01/05 02:57:34;;;;;;;3.40;1.30;;;;;;;4.82;100.00;98555.78;3504731;83;98578;-85
2022/01/05 03:02:35;;;;;;;4.53;1.25;;;;;;;4.82;100.00;98553.84;3501360;82;98506;-86
2022/01/05 03:07:39;;;;;;;3.10;1.23;;;;;;;4.78;100.00;98564.52;3504313;83;98783;-86
2022/01/05 03:12:41;;;;;;;3.95;1.45;;;;;;;4.78;100.00;98565.88;3496708;83;98466;-86
2022/01/05 03:17:43;;;;;;;4.17;1.73;;;;;;;4.78;100.00;98569.97;3500460;83;98591;-86
2022/01/05 03:22:44;;;;;;;6.62;2.25;;;;;;;4.76;100.00;98569.58;3494017;83;98456;-86
2022/01/05 03:27:48;;;;;;;4.80;1.75;;;;;;;4.72;100.00;98581.04;3508958;83;98597;-86
2022/01/05 03:38:01;;;;;;;3.87;1.37;;;;;;;4.63;100.00;98565.04;3502365;83;98367;-86
2022/01/05 03:43:05;;;;;;;4.90;2.10;;;;;;;4.52;100.00;98536.97;3502984;83;98304;-85
2022/01/05 03:48:09;;;;;;;4.27;1.47;;;;;;;4.44;100.00;98542.20;3488842;83;98696;-86
2022/01/05 03:53:11;;;;;;;5.33;1.55;;;;;;;4.35;100.00;98540.97;3503428;83;98804;-87
2022/01/05 03:58:12;;;;;;;3.20;1.57;;;;;;;4.28;100.00;98534.12;3552211;82;98932;-87
2022/01/05 04:03:14;;;;;;;4.70;1.60;;;;;;;4.21;100.00;98537.58;3554797;81;25853;-86
2022/01/05 04:08:15;;;;;;;6.53;1.80;;;;;;;4.15;100.00;98543.78;3558412;82;99091;-87
2022/01/05 04:13:16;;;;;;;4.27;1.50;;;;;;;4.06;100.00;98525.08;3563351;81;98328;-86
2022/01/05 04:18:17;;;;;;;5.60;1.57;;;;;;;3.99;100.00;98526.97;3540001;82;98802;-86
2022/01/05 04:23:18;;;;;;;4.27;1.33;;;;;;;3.93;100.00;98546.93;3555885;82;98498;-86
2022/01/05 04:28:19;;;;;;;4.57;1.47;;;;;;;3.87;100.00;98549.80;3552407;83;98478;-86
2022/01/05 04:33:20;;;;;;;6.47;1.90;;;;;;;3.79;100.00;98550.13;3559663;82;26166;-86
2022/01/05 04:38:20;;;;;;;5.40;2.00;;;;;;;3.75;100.00;98554.19;3556680;81;98501;-86
2022/01/05 04:43:21;;;;;;;4.87;1.90;;;;;;;3.69;100.00;98552.98;3566160;82;98392;-86
2022/01/05 04:48:22;;;;;;;5.70;2.87;;;;;;;3.70;100.00;98574.94;3546581;81;98483;-86
2022/01/05 04:53:23;;;;;;;5.53;2.40;;;;;;;3.71;100.00;98569.69;3556317;82;98561;-86
2022/01/05 04:58:24;;;;;;;6.77;2.40;;;;;;;3.72;100.00;98569.13;3477231;83;98677;-85
2022/01/05 05:03:25;;;;;;;6.00;2.40;;;;;;;3.68;100.00;98560.95;3484410;83;32903;-85
2022/01/05 05:08:26;;;;;;;4.93;2.40;;;;;;;3.65;100.00;98560.32;3477258;83;99076;-85
2022/01/05 05:13:26;;;;;;;7.20;2.63;;;;;;;3.65;100.00;98567.13;3474628;83;98329;-85
2022/01/05 05:18:27;;;;;;;7.77;3.13;;;;;;;3.66;100.00;98571.40;3463165;83;98650;-85
2022/01/05 05:23:29;;;;;;;10.40;3.97;;;;;;;3.68;100.00;98569.67;3491125;83;98603;-86
2022/01/05 05:28:30;;;;;;;12.03;4.70;;;;;;;3.70;100.00;98573.58;3490967;83;98705;-86
2022/01/05 05:33:31;;;;;;;14.27;7.10;;;;;;;3.72;100.00;98565.81;3483064;83;32616;-86
2022/01/05 05:38:33;;;;;;;16.07;8.43;;;;;;;3.77;100.00;98576.34;3491124;82;98485;-86
2022/01/05 05:43:34;;;;;;;19.60;8.57;;;;;;;3.84;100.00;98582.44;3500123;83;98488;-86
2022/01/05 05:48:34;;;;;;;19.90;9.25;;;;;;;3.88;100.00;98576.45;3488532;82;99365;-86
2022/01/05 05:53:35;;;;;;;16.70;7.40;;;;;;;3.92;100.00;98572.58;3497876;83;98766;-86
2022/01/05 05:58:36;;;;;;;16.97;8.43;;;;;;;3.98;100.00;98573.03;3477378;83;98583;-86
2022/01/05 06:03:37;;;;;;;26.37;13.87;;;;;;;4.03;100.00;98580.81;3487815;83;98802;-86
2022/01/05 06:08:39;;;;;;;36.37;22.03;;;;;;;4.08;100.00;98577.73;3545699;83;98539;-86
2022/01/05 06:13:40;;;;;;;39.50;27.43;;;;;;;4.12;100.00;98579.34;3556519;81;98651;-86
2022/01/05 06:18:41;;;;;;;39.95;25.85;;;;;;;4.16;100.00;98570.61;3543431;82;99140;-85
2022/01/05 06:23:42;;;;;;;20.03;10.97;;;;;;;4.21;100.00;98581.73;3549434;83;99504;-86
2022/01/05 06:28:43;;;;;;;22.23;11.63;;;;;;;4.25;100.00;98581.95;3546368;81;99134;-86
2022/01/05 06:33:44;;;;;;;14.10;6.13;;;;;;;4.29;100.00;98603.19;3552324;81;98867;-85
2022/01/05 06:38:45;;;;;;;11.30;4.20;;;;;;;4.30;100.00;98610.75;3549717;82;98459;-85
2022/01/05 06:43:46;;;;;;;10.30;3.20;;;;;;;4.20;100.00;98613.61;3554255;83;99298;-85
2022/01/05 06:48:46;;;;;;;11.33;2.97;;;;;;;4.12;100.00;98627.55;3546604;82;98639;-86
2022/01/05 06:53:47;;;;;;;11.83;4.50;;;;;;;4.03;100.00;98640.12;3562650;81;99072;-85
2022/01/05 06:58:51;;;;;;;10.40;3.53;;;;;;;3.95;100.00;98651.33;3531639;82;99421;-84
2022/01/05 07:03:52;;;;;;;14.47;5.13;;;;;;;3.87;100.00;98653.80;3537435;82;98833;-85
2022/01/05 07:08:53;;;;;;;27.73;11.67;;;;;;;3.80;100.00;98658.59;3529972;82;98393;-85
2022/01/05 07:13:54;;;;;;;20.90;10.13;;;;;;;3.68;100.00;98659.43;3475393;84;98628;-86
2022/01/05 07:18:55;;;;;;;13.83;5.10;;;;;;;3.63;100.00;98661.92;3528014;82;98828;-86
2022/01/05 07:23:56;;;;;;;10.93;3.40;;;;;;;3.54;100.00;98672.88;3535167;82;98672;-86
2022/01/05 07:28:56;;;;;;;8.83;3.00;;;;;;;3.43;100.00;98672.77;3538425;83;99010;-87
2022/01/05 07:33:58;;;;;;;9.63;4.33;;;;;;;3.36;100.00;98667.83;3531910;82;98596;-88
2022/01/05 07:38:59;;;;;;;9.87;3.43;;;;;;;3.38;100.00;98673.70;3519753;83;98730;-87
2022/01/05 07:44:00;;;;;;;10.50;3.17;;;;;;;3.34;100.00;98673.63;3526514;82;98651;-85
2022/01/05 07:49:03;;;;;;;7.23;3.30;;;;;;;3.35;100.00;98673.06;3534540;82;98686;-87
2022/01/05 07:54:04;;;;;;;13.65;4.60;;;;;;;3.33;100.00;98678.87;3524776;82;98909;-86
2022/01/05 07:59:05;;;;;;;14.57;4.73;;;;;;;3.31;100.00;98682.55;3550558;81;99107;-86
2022/01/05 08:04:06;;;;;;;11.03;4.13;;;;;;;3.25;100.00;98686.75;3489075;82;99041;-87
2022/01/05 08:09:07;;;;;;;10.63;2.63;;;;;;;3.21;100.00;98679.12;3416265;83;98879;-87
2022/01/05 08:14:07;;;;;;;12.50;3.77;;;;;;;3.22;100.00;98690.79;3463966;83;98907;-85
2022/01/05 08:19:08;;;;;;;6.33;2.50;;;;;;;3.24;100.00;98681.11;3488428;83;99002;-87
2022/01/05 08:24:12;;;;;;;8.57;1.90;;;;;;;3.25;100.00;98670.44;3462769;83;98471;-86
2022/01/05 08:29:15;;;;;;;4.90;1.90;;;;;;;3.31;100.00;98665.44;3448765;83;99554;-86
2022/01/05 08:34:16;;;;;;;7.00;2.10;;;;;;;3.34;100.00;98657.31;3411069;85;98594;-87
2022/01/05 08:39:20;;;;;;;7.10;3.00;;;;;;;3.37;100.00;98654.44;3402584;85;98665;-86
2022/01/05 08:44:23;;;;;;;8.07;2.43;;;;;;;3.36;100.00;98664.55;3406250;84;98728;-86
2022/01/05 08:49:23;;;;;;;8.23;2.40;;;;;;;3.34;100.00;98663.35;3388550;85;124594;-85
2022/01/05 08:54:25;;;;;;;11.77;3.20;;;;;;;3.34;100.00;98672.27;3472558;84;98905;-85
2022/01/05 08:59:26;;;;;;;11.80;3.10;;;;;;;3.36;100.00;98668.63;3405260;84;98692;-85
2022/01/05 09:04:27;;;;;;;9.47;2.90;;;;;;;3.39;100.00;98671.18;3413668;85;98743;-85
2022/01/05 09:09:28;;;;;;;12.87;3.97;;;;;;;3.39;100.00;98682.05;3407083;85;98252;-86
2022/01/05 09:14:29;;;;;;;12.47;3.57;;;;;;;3.40;100.00;98702.08;3396140;85;98512;-87
2022/01/05 09:19:30;;;;;;;12.63;4.40;;;;;;;3.37;100.00;98709.61;3402149;85;99189;-86
2022/01/05 09:24:32;;;;;;;17.10;5.63;;;;;;;3.37;100.00;98706.09;3363393;85;98842;-86
2022/01/05 09:29:34;;;;;;;12.80;4.93;;;;;;;3.39;100.00;98716.03;3314157;86;98809;-87
2022/01/05 09:34:40;;;;;;;14.30;3.72;;;;;;;3.43;100.00;98712.20;3358452;86;97965;-87
2022/01/05 09:45:06;;;;;;;12.60;4.53;;;;;;;3.54;100.00;98700.86;3371465;86;26182;-85
2022/01/05 09:50:11;;;;;;;12.85;4.62;;;;;;;3.61;100.00;98717.25;3337043;85;99007;-85
2022/01/05 09:55:15;;;;;;;12.07;3.20;;;;;;;3.68;100.00;98706.47;3371097;84;98477;-85
2022/01/05 10:00:18;;;;;;;9.77;3.20;;;;;;;3.76;100.00;98710.81;3500897;82;98861;-84
2022/01/05 10:05:21;;;;;;;9.55;3.27;;;;;;;3.80;100.00;98705.41;3522831;82;99251;-85
2022/01/05 10:10:22;;;;;;;13.03;4.57;;;;;;;3.83;100.00;98699.23;3517523;82;98626;-86
2022/01/05 10:15:26;;;;;;;11.13;3.43;;;;;;;3.88;100.00;98694.81;3521885;82;32464;-87
2022/01/05 10:20:28;;;;;;;13.33;4.33;;;;;;;3.99;100.00;98701.13;3517471;81;98525;-86
2022/01/05 10:25:29;;;;;;;11.73;3.70;;;;;;;4.09;100.00;98698.50;3516486;81;98549;-85
2022/01/05 10:30:40;;;;;;;16.90;4.67;;;;;;;4.17;100.00;98704.22;3508897;82;99013;-85
2022/01/05 10:35:52;;;;;;;11.57;3.77;;;;;;;4.21;100.00;98709.09;3498215;82;98725;-86
2022/01/05 10:40:52;;;;;;;9.87;3.20;;;;;;;4.26;100.00;98716.16;3464991;82;98952;-85
2022/01/05 10:45:53;;;;;;;15.60;4.40;;;;;;;4.26;100.00;98723.73;3486119;82;98546;-86
2022/01/05 10:51:06;;;;;;;11.23;3.00;;;;;;;4.28;100.00;98714.63;3506433;83;98774;-85
2022/01/05 10:56:09;;;;;;;11.00;3.20;;;;;;;4.23;100.00;98717.69;3476153;82;98834;-85
2022/01/05 11:01:26;;;;;;;10.15;3.42;;;;;;;4.23;100.00;98701.92;3439569;84;98608;-85
2022/01/05 11:06:27;;;;;;;12.85;3.10;;;;;;;4.28;100.00;98708.38;3438615;84;99076;-85
2022/01/05 11:11:41;;;;;;;11.53;4.27;;;;;;;4.26;100.00;98716.91;3457497;83;99061;-84
2022/01/05 11:16:46;;;;;;;11.30;4.23;;;;;;;4.25;100.00;98705.83;3406899;84;98749;-87
2022/01/05 11:22:17;;;;;;;13.78;3.70;;;;;;;4.27;100.00;98719.08;3413255;85;99063;-86
2022/01/05 11:27:24;;;;;;;13.30;3.10;;;;;;;4.23;100.00;98721.77;3502327;83;26702;-86
2022/01/05 11:32:30;;;;;;;14.07;3.75;;;;;;;4.22;100.00;98717.48;3504417;82;98180;-85
2022/01/05 11:37:29;;;;;;;9.90;3.40;;;;;;;4.21;100.00;98696.08;3513735;83;98590;-88
2022/01/05 11:42:37;;;;;;;14.90;4.80;;;;;;;4.20;100.00;98706.17;3505540;82;98229;-87
2022/01/05 11:47:40;;;;;;;12.20;3.30;;;;;;;4.17;100.00;98712.39;3515067;82;98725;-86
2022/01/05 11:53:09;;;;;;;11.17;3.33;;;;;;;4.22;100.00;98715.33;3495520;82;99447;-85
2022/01/05 11:58:26;;;;;;;12.43;3.10;;;;;;;4.22;100.00;98724.86;3433582;82;99448;-86
2022/01/05 12:03:59;;;;;;;12.77;4.13;;;;;;;4.20;100.00;98729.91;3497173;82;28776;-88
2022/01/05 12:09:04;;;;;;;8.98;3.50;;;;;;;4.15;100.00;98741.91;3472642;83;98402;-85
2022/01/05 12:14:26;;;;;;;12.28;3.47;;;;;;;4.10;100.00;98755.09;3468843;83;98366;-87
2022/01/05 12:19:36;;;;;;;13.07;4.97;;;;;;;4.08;100.00;98756.02;3470425;83;98737;-87
2022/01/05 12:25:07;;;;;;;7.70;3.17;;;;;;;4.01;100.00;98750.52;3488753;83;98772;-88
2022/01/05 12:30:22;;;;;;;9.60;3.77;;;;;;;3.99;100.00;98737.28;3457055;83;99039;-86
2022/01/05 12:35:23;;;;;;;15.47;4.90;;;;;;;4.02;100.00;98745.27;3482300;83;98855;-87
2022/01/05 12:40:46;;;;;;;15.03;3.92;;;;;;;4.01;100.00;98739.63;3477443;81;98959;-84
2022/01/05 12:46:03;;;;;;;10.60;3.83;;;;;;;3.99;100.00;98737.28;3415460;85;28233;-84
2022/01/05 12:51:25;;;;;;;15.03;5.20;;;;;;;3.93;100.00;98734.70;3389577;85;99003;-86
2022/01/05 12:56:32;;;;;;;11.87;3.87;;;;;;;3.92;100.00;98729.62;3490704;82;98472;-85
2022/01/05 13:01:34;;;;;;;12.70;4.75;;;;;;;3.91;100.00;98737.02;3493752;82;98446;-86
2022/01/05 13:06:41;;;;;;;13.17;4.13;;;;;;;3.89;100.00;98732.54;3491679;83;98811;-85
2022/01/05 13:11:50;;;;;;;14.07;5.15;;;;;;;3.91;100.00;98730.78;3474983;83;99393;-85
2022/01/05 13:17:11;;;;;;;12.00;3.77;;;;;;;3.93;100.00;98742.86;3488192;83;98758;-86
2022/01/05 13:22:20;;;;;;;11.90;4.40;;;;;;;3.82;100.00;98725.64;3491177;83;98403;-86
2022/01/05 13:27:33;;;;;;;14.10;5.63;;;;;;;3.89;100.00;98747.50;3497359;83;27269;-85
2022/01/05 13:32:36;;;;;;;10.47;3.47;;;;;;;3.90;100.00;98742.26;3486582;82;98424;-86
2022/01/05 13:37:50;;;;;;;11.50;3.70;;;;;;;3.86;100.00;98742.00;3499141;83;98994;-87
2022/01/05 13:43:01;;;;;;;12.13;3.80;;;;;;;3.81;100.00;98743.69;3494918;82;99014;-86
2022/01/05 13:48:20;;;;;;;15.03;3.87;;;;;;;3.80;100.00;98732.61;3493635;83;98914;-86
2022/01/05 13:53:27;;;;;;;14.43;4.37;;;;;;;3.77;100.00;98751.82;3497708;83;99037;-86
2022/01/05 13:58:32;;;;;;;11.97;3.62;;;;;;;3.73;99.74;98765.19;3481454;83;98938;-85
2022/01/05 14:03:47;;;;;;;10.68;4.08;;;;;;;3.71;100.00;98758.75;3474223;83;33226;-85
2022/01/05 14:08:56;;;;;;;13.40;3.53;;;;;;;3.67;99.66;98759.28;3464688;83;98953;-84
2022/01/05 14:14:11;;;;;;;15.50;4.07;;;;;;;3.65;99.93;98779.28;3463140;83;97609;-84
2022/01/05 14:19:26;;;;;;;11.40;3.63;;;;;;;3.62;99.90;98781.39;3474672;83;98544;-84
2022/01/05 14:24:36;;;;;;;16.90;3.07;;;;;;;3.60;99.24;98785.64;3401377;85;98703;-84
2022/01/05 14:29:36;;;;;;;20.25;6.65;;;;;;;3.57;99.23;98785.80;3391724;85;98488;-84
2022/01/05 14:34:53;;;;;;;24.67;10.63;;;;;;;3.58;99.56;98797.45;3308816;88;98589;-85
2022/01/05 14:39:52;;;;;;;12.40;4.85;;;;;;;3.57;99.65;98810.28;3388849;85;98745;-85
2022/01/05 14:44:53;;;;;;;13.87;3.50;;;;;;;3.57;99.65;98813.56;3449119;83;98567;-85
2022/01/05 14:49:56;;;;;;;12.10;3.50;;;;;;;3.54;99.50;98805.56;3402212;84;98658;-86
2022/01/05 14:54:58;;;;;;;17.47;4.83;;;;;;;3.53;99.23;98810.01;3389445;85;98920;-86
2022/01/05 14:59:59;;;;;;;9.90;4.00;;;;;;;3.50;99.13;98806.68;3378456;85;98579;-86
2022/01/05 15:05:03;;;;;;;8.53;3.10;;;;;;;3.47;98.74;98823.72;3496343;83;98284;-85
2022/01/05 15:10:05;;;;;;;13.27;4.27;;;;;;;3.34;98.50;98803.36;3502443;82;98030;-86
2022/01/05 15:15:07;;;;;;;12.60;3.43;;;;;;;3.43;98.97;98812.01;3496874;83;98243;-86
2022/01/05 15:20:10;;;;;;;11.30;4.50;;;;;;;3.37;98.00;98812.92;3505967;82;98563;-87
2022/01/05 15:25:12;;;;;;;16.77;4.70;;;;;;;3.39;98.44;98830.23;3534297;82;98607;-86
2022/01/05 15:30:13;;;;;;;14.43;5.03;;;;;;;3.37;97.79;98839.31;3522738;81;98689;-88
2022/01/05 15:35:14;;;;;;;15.57;3.73;;;;;;;3.35;98.20;98837.55;3524604;83;98487;-85
2022/01/05 15:40:15;;;;;;;11.93;4.83;;;;;;;3.33;96.94;98837.14;3522971;82;98524;-86
2022/01/05 15:45:16;;;;;;;14.07;4.10;;;;;;;3.29;97.74;98843.86;3526550;82;33010;-87
2022/01/05 15:50:17;;;;;;;15.33;6.30;;;;;;;3.28;97.07;98851.05;3506875;82;98537;-85
2022/01/05 15:55:20;;;;;;;14.27;5.03;;;;;;;3.26;97.39;98851.97;3506721;82;97733;-86
2022/01/05 16:05:44;;;;;;;18.30;4.97;;;;;;;3.23;97.18;98856.20;3547741;81;98850;-86
2022/01/05 16:10:45;;;;;;;24.13;5.80;;;;;;;3.22;96.85;98848.44;3555472;81;98506;-85
2022/01/05 16:15:52;;;;;;;17.13;6.30;;;;;;;3.21;97.28;98842.77;3552233;81;33137;-89
2022/01/05 16:20:53;;;;;;;15.63;5.97;;;;;;;3.20;97.35;98846.08;3540576;82;98691;-87
2022/01/05 16:25:54;;;;;;;17.30;5.77;;;;;;;3.18;97.67;98843.52;3549807;82;97732;-87
2022/01/05 16:30:55;;;;;;;11.43;4.70;;;;;;;3.17;97.85;98841.36;3545789;82;98931;-85
2022/01/05 16:35:56;;;;;;;15.70;5.30;;;;;;;3.17;97.60;98852.83;3547046;82;98896;-86
2022/01/05 16:40:57;;;;;;;14.70;5.93;;;;;;;3.14;97.59;98843.47;3534442;82;98429;-85
2022/01/05 16:46:00;;;;;;;15.37;5.00;;;;;;;3.14;97.69;98842.11;3562025;82;33032;-87
2022/01/05 16:51:01;;;;;;;18.53;5.40;;;;;;;3.14;98.04;98843.47;3535200;82;98434;-83
2022/01/05 16:56:05;;;;;;;13.57;4.97;;;;;;;3.12;98.09;98841.67;3516032;82;98315;-84
2022/01/05 17:01:07;;;;;;;19.23;4.47;;;;;;;3.11;97.45;98844.78;3527220;81;98474;-85
2022/01/05 17:06:08;;;;;;;13.40;5.03;;;;;;;3.11;97.35;98852.94;3511800;82;98583;-85
2022/01/05 17:11:09;;;;;;;14.13;4.67;;;;;;;3.13;97.40;98850.63;3467878;82;98632;-84
2022/01/05 17:16:10;;;;;;;14.23;6.20;;;;;;;3.13;97.09;98840.55;3442966;84;32502;-85
2022/01/05 17:21:11;;;;;;;10.43;3.70;;;;;;;3.14;97.29;98844.03;3498136;82;98270;-86
2022/01/05 17:26:13;;;;;;;14.47;4.03;;;;;;;3.14;96.78;98838.59;3525879;82;98301;-86
2022/01/05 17:31:14;;;;;;;13.83;4.23;;;;;;;3.13;95.54;98841.91;3468199;82;99038;-85
2022/01/05 17:36:16;;;;;;;12.83;4.70;;;;;;;3.15;95.78;98842.31;3494235;82;98596;-83
2022/01/05 17:41:20;;;;;;;16.43;4.70;;;;;;;3.17;94.83;98844.67;3524741;82;98447;-83
2022/01/05 17:46:21;;;;;;;16.77;5.30;;;;;;;3.16;95.35;98844.47;3526603;82;98502;-83
2022/01/05 17:51:23;;;;;;;14.93;5.30;;;;;;;3.15;95.24;98843.67;3538544;81;98151;-84
2022/01/05 17:56:24;;;;;;;13.88;5.33;;;;;;;3.15;94.06;98842.87;3558337;81;98267;-84
2022/01/05 18:01:25;;;;;;;12.33;4.00;;;;;;;3.15;94.30;98844.23;3494761;82;98555;-85
2022/01/05 18:06:26;;;;;;;16.23;4.80;;;;;;;3.15;94.15;98839.59;3487989;83;97731;-86
2022/01/05 18:11:27;;;;;;;16.17;4.50;;;;;;;3.15;93.54;98836.88;3453218;83;98766;-86
2022/01/05 18:16:28;;;;;;;13.13;5.00;;;;;;;3.15;94.33;98831.44;3477435;83;98339;-85
2022/01/05 18:21:29;;;;;;;15.80;4.13;;;;;;;3.15;94.04;98833.37;3473353;83;98090;-85
2022/01/05 18:26:32;;;;;;;11.97;4.20;;;;;;;3.16;94.12;98836.31;3466850;83;98460;-85
2022/01/05 18:31:35;;;;;;;17.73;6.10;;;;;;;3.15;94.48;98836.88;3461726;83;98765;-86
2022/01/05 18:36:36;;;;;;;13.30;4.43;;;;;;;3.15;94.15;98837.44;3454397;83;98617;-86
2022/01/05 18:41:37;;;;;;;15.53;5.40;;;;;;;3.15;94.51;98830.08;3454694;83;98592;-86
2022/01/05 18:46:38;;;;;;;14.73;4.83;;;;;;;3.14;94.47;98829.88;3495813;82;98571;-86
2022/01/05 18:51:38;;;;;;;14.03;6.07;;;;;;;3.11;94.97;98825.16;3489225;83;98500;-87
2022/01/05 18:56:40;;;;;;;14.43;6.70;;;;;;;3.09;95.20;98827.48;3462845;84;98317;-85
2022/01/05 19:01:41;;;;;;;14.33;6.07;;;;;;;3.06;95.55;98829.55;3508676;82;98346;-84
2022/01/05 19:06:42;;;;;;;18.53;6.80;;;;;;;3.04;95.46;98832.42;3551241;81;98700;-87
2022/01/05 19:11:44;;;;;;;16.47;6.03;;;;;;;3.00;95.39;98828.30;3520845;81;98534;-86
2022/01/05 19:16:47;;;;;;;13.40;6.20;;;;;;;2.99;96.02;98822.66;3487337;83;99007;-86
2022/01/05 19:21:50;;;;;;;12.23;6.08;;;;;;;2.97;96.43;98828.25;3489184;83;98144;-88
2022/01/05 19:26:53;;;;;;;12.37;5.70;;;;;;;2.92;97.24;98828.56;3491427;83;98462;-85
2022/01/05 19:31:53;;;;;;;13.68;6.37;;;;;;;2.87;98.21;98826.94;3482994;83;98410;-86
2022/01/05 19:36:56;;;;;;;18.60;6.97;;;;;;;2.83;98.80;98832.09;3485498;83;98580;-84
2022/01/05 19:41:57;;;;;;;15.83;6.83;;;;;;;2.77;99.38;98826.20;3501131;82;98481;-87
2022/01/05 19:46:58;;;;;;;14.35;6.92;;;;;;;2.66;100.00;98828.52;3537198;83;98451;-87
2022/01/05 19:52:06;;;;;;;15.87;7.17;;;;;;;2.57;100.00;98830.13;3470741;83;98524;-87
2022/01/05 19:57:04;;;;;;;15.47;7.10;;;;;;;2.50;100.00;98832.73;3465977;83;98604;-87
2022/01/05 20:02:15;;;;;;;13.90;7.27;;;;;;;2.47;100.00;98829.37;3408236;84;98589;-88
2022/01/05 20:07:18;;;;;;;14.33;7.17;;;;;;;2.47;100.00;98832.67;3388501;85;99158;-88
2022/01/05 20:12:18;;;;;;;13.83;6.60;;;;;;;2.49;100.00;98836.59;3438630;83;100033;-88
2022/01/05 20:17:20;;;;;;;12.73;6.70;;;;;;;2.53;100.00;98834.73;3469144;84;98830;-86
2022/01/05 20:22:22;;;;;;;13.17;6.57;;;;;;;2.57;100.00;98837.50;3464713;83;99157;-87
2022/01/05 20:27:32;;;;;;;13.07;7.00;;;;;;;2.60;100.00;98839.48;3479496;83;32548;-86
2022/01/05 20:32:40;;;;;;;12.90;5.80;;;;;;;2.64;100.00;98847.91;3481495;83;98580;-88
2022/01/05 20:37:39;;;;;;;12.23;5.70;;;;;;;2.65;100.00;98844.61;3474074;83;98811;-88
2022/01/05 20:42:41;;;;;;;12.90;6.20;;;;;;;2.67;100.00;98842.34;3466617;82;98678;-89
2022/01/05 20:47:42;;;;;;;13.17;6.37;;;;;;;2.68;100.00;98850.69;3425712;84;99126;-88
2022/01/05 20:52:43;;;;;;;11.13;5.43;;;;;;;2.67;100.00;98845.81;3458151;83;98726;-89
2022/01/05 20:57:45;;;;;;;11.43;6.33;;;;;;;2.67;100.00;98845.05;3483836;83;33131;-86
2022/01/05 21:02:48;;;;;;;11.55;6.62;;;;;;;2.67;100.00;98849.13;3476987;83;98544;-89
2022/01/05 21:07:50;;;;;;;11.93;5.83;;;;;;;2.69;100.00;98848.94;3493407;83;98614;-88
2022/01/05 21:12:55;;;;;;;14.07;7.37;;;;;;;2.72;100.00;98851.51;3497397;82;99056;-89
2022/01/05 21:17:54;;;;;;;16.37;6.67;;;;;;;2.74;100.00;98857.38;3497083;83;98703;-89
2022/01/05 21:22:55;;;;;;;14.00;6.17;;;;;;;2.78;100.00;98865.02;3506460;83;98654;-87
2022/01/05 21:27:57;;;;;;;10.97;5.40;;;;;;;2.81;100.00;98855.57;3509064;83;26341;-88
2022/01/05 21:33:08;;;;;;;;;;;;;;;;;;;;;
2022/01/05 21:38:03;;;;;;;12.13;5.43;;;;;;;2.91;100.00;98870.47;3498673;82;99047;-89
2022/01/05 21:43:06;;;;;;;11.47;5.13;;;;;;;2.94;100.00;98869.72;3493071;82;98644;-88
2022/01/05 21:48:07;;;;;;;12.07;4.60;;;;;;;2.98;100.00;98870.01;3495692;82;98814;-88
2022/01/05 21:53:08;;;;;;;10.37;4.43;;;;;;;3.00;100.00;98869.05;3438771;84;98864;-88
2022/01/05 21:58:09;;;;;;;10.55;4.97;;;;;;;3.01;100.00;98873.34;3499304;83;98369;-89
2022/01/05 22:03:10;;;;;;;9.70;4.83;;;;;;;3.02;100.00;98876.85;3531974;81;99365;-89
2022/01/05 22:08:13;;;;;;;9.40;4.57;;;;;;;3.04;100.00;98890.84;3556909;81;98490;-89
2022/01/05 22:13:13;;;;;;;10.15;4.40;;;;;;;3.05;100.00;98891.85;3545894;81;98499;-87
2022/01/05 22:18:14;;;;;;;10.37;4.67;;;;;;;3.07;100.00;98898.29;3568013;81;98725;-87
2022/01/05 22:23:15;;;;;;;11.20;4.63;;;;;;;3.11;100.00;98914.85;3551134;81;98649;-86
2022/01/05 22:28:16;;;;;;;11.40;4.57;;;;;;;3.15;100.00;98914.91;3566716;81;98499;-87
2022/01/05 22:33:17;;;;;;;8.77;4.27;;;;;;;3.16;100.00;98917.27;3573484;81;98287;-86
2022/01/05 22:38:18;;;;;;;10.63;4.60;;;;;;;3.21;100.00;98918.31;3542686;81;101434;-86
2022/01/05 22:43:19;;;;;;;10.18;4.00;;;;;;;3.24;100.00;98935.27;3541690;82;98898;-86
2022/01/05 22:48:20;;;;;;;11.00;4.17;;;;;;;3.30;100.00;98937.09;3553487;81;98772;-86
2022/01/05 22:53:21;;;;;;;10.60;3.73;;;;;;;3.32;100.00;98942.37;3570400;81;98736;-87
2022/01/05 22:58:22;;;;;;;9.98;3.70;;;;;;;3.34;100.00;98943.38;3573751;81;98430;-88
2022/01/05 23:03:23;;;;;;;6.73;3.40;;;;;;;3.37;100.00;98933.91;3575134;81;98118;-87
2022/01/05 23:08:24;;;;;;;7.77;3.47;;;;;;;3.41;100.00;98944.84;3512526;82;98378;-85
2022/01/05 23:13:24;;;;;;;11.47;4.17;;;;;;;3.43;100.00;98950.69;3515965;82;100191;-85
2022/01/05 23:18:28;;;;;;;7.20;3.53;;;;;;;3.44;100.00;98955.77;3515208;82;98792;-87
2022/01/05 23:23:30;;;;;;;17.77;5.13;;;;;;;3.46;100.00;98958.92;3481870;82;98441;-85
2022/01/05 23:28:31;;;;;;;15.13;6.10;;;;;;;3.47;100.00;98955.05;3506598;82;98711;-86
2022/01/05 23:33:32;;;;;;;17.97;6.00;;;;;;;3.48;100.00;98964.77;3552884;82;25991;-85
2022/01/05 23:38:33;;;;;;;10.63;3.55;;;;;;;3.50;100.00;98968.48;3550651;81;98578;-86
2022/01/05 23:43:34;;;;;;;9.33;2.70;;;;;;;3.50;100.00;98967.89;3511967;82;98662;-88
2022/01/05 23:48:37;;;;;;;10.07;3.20;;;;;;;3.51;100.00;98976.86;3513081;82;98572;-85
2022/01/05 23:53:38;;;;;;;10.40;3.00;;;;;;;3.51;100.00;98970.05;3527585;82;98772;-86